createdAt,value
2023-08-24T00:00:33.451Z,65.43
2023-08-24T00:03:22.524Z,65.69
2023-08-24T00:05:50.415Z,65.76
2023-08-24T00:08:18.318Z,65.83
2023-08-24T00:10:49.019Z,65.84
2023-08-24T00:13:16.752Z,65.99
2023-08-24T00:15:46.167Z,65.92
2023-08-24T00:18:14.131Z,66.04
2023-08-24T00:20:42.587Z,66.17
2023-08-24T00:23:10.157Z,66.38
2023-08-24T00:25:37.903Z,66.48
2023-08-24T00:28:06.097Z,66.42
2023-08-24T00:30:33.848Z,66.56
2023-08-24T00:33:01.495Z,66.69
2023-08-24T00:35:29.255Z,66.63
2023-08-24T00:37:56.837Z,66.64
2023-08-24T00:40:26.074Z,66.72
2023-08-24T00:42:54.573Z,66.73
2023-08-24T00:45:22.437Z,66.78
2023-08-24T00:47:51.124Z,66.65
2023-08-24T00:50:20.497Z,66.74
2023-08-24T00:52:50.460Z,66.75
2023-08-24T00:55:18.460Z,66.80
2023-08-24T00:57:46.160Z,66.82
2023-08-24T01:00:14.724Z,66.89
2023-08-24T01:02:42.561Z,66.87
2023-08-24T01:05:10.391Z,66.76
2023-08-24T01:07:40.783Z,66.81
2023-08-24T01:10:11.591Z,66.84
2023-08-24T01:12:58.295Z,66.97
2023-08-24T01:15:52.897Z,67.06
2023-08-24T01:18:23.735Z,67.17
2023-08-24T01:20:55.810Z,67.26
2023-08-24T01:23:38.524Z,67.33
2023-08-24T01:26:18.960Z,67.45
2023-08-24T01:28:47.736Z,67.51
2023-08-24T01:31:19.799Z,67.44
2023-08-24T01:33:50.017Z,67.49
2023-08-24T01:36:18.064Z,67.44
2023-08-24T01:38:54.894Z,67.34
2023-08-24T01:41:39.603Z,67.48
2023-08-24T01:44:09.882Z,67.47
2023-08-24T01:46:38.805Z,67.45
2023-08-24T01:49:09.446Z,67.46
2023-08-24T01:51:37.498Z,67.47
2023-08-24T01:54:05.749Z,67.47
2023-08-24T01:56:33.410Z,67.79
2023-08-24T01:59:01.091Z,68.00
2023-08-24T02:01:28.832Z,67.94
2023-08-24T02:03:57.521Z,68.10
2023-08-24T02:06:25.626Z,68.18
2023-08-24T02:08:53.405Z,68.17
2023-08-24T02:11:21.048Z,68.37
2023-08-24T02:13:48.608Z,68.33
2023-08-24T02:16:16.700Z,68.34
2023-08-24T02:18:44.379Z,68.45
2023-08-24T02:21:16.143Z,68.39
2023-08-24T02:23:43.829Z,68.44
2023-08-24T02:26:11.444Z,68.61
2023-08-24T02:28:39.935Z,68.61
2023-08-24T02:31:07.657Z,68.60
2023-08-24T02:33:36.352Z,68.70
2023-08-24T02:36:05.268Z,69.08
2023-08-24T02:38:32.862Z,69.25
2023-08-24T02:41:04.229Z,69.35
2023-08-24T02:43:32.566Z,69.47
2023-08-24T02:46:05.549Z,69.48
2023-08-24T02:48:33.712Z,69.79
2023-08-24T02:51:05.700Z,69.91
2023-08-24T02:53:33.571Z,69.96
2023-08-24T02:56:02.602Z,70.14
2023-08-24T02:58:31.044Z,70.14
2023-08-24T03:00:58.689Z,70.22
2023-08-24T03:03:26.538Z,70.36
2023-08-24T03:05:54.360Z,70.25
2023-08-24T03:08:22.095Z,70.34
2023-08-24T03:10:49.879Z,70.38
2023-08-24T03:13:18.045Z,70.63
2023-08-24T03:15:45.930Z,70.65
2023-08-24T03:18:15.994Z,70.86
2023-08-24T03:20:46.138Z,70.92
2023-08-24T03:23:16.373Z,71.05
2023-08-24T03:25:44.879Z,71.22
2023-08-24T03:28:12.821Z,71.32
2023-08-24T03:30:47.451Z,71.48
2023-08-24T03:33:15.304Z,71.53
2023-08-24T03:35:43.724Z,71.67
2023-08-24T03:38:11.680Z,71.75
2023-08-24T03:40:39.346Z,71.85
2023-08-24T03:43:06.986Z,71.92
2023-08-24T03:45:34.613Z,72.00
2023-08-24T03:48:02.381Z,72.15
2023-08-24T03:50:30.125Z,72.45
2023-08-24T03:52:57.963Z,72.56
2023-08-24T03:55:25.760Z,72.61
2023-08-24T03:57:55.334Z,72.84
2023-08-24T04:00:27.256Z,72.75
2023-08-24T04:02:55.315Z,72.79
2023-08-24T04:05:25.836Z,73.01
2023-08-24T04:07:54.492Z,72.98
2023-08-24T04:10:22.303Z,73.03
2023-08-24T04:12:50.078Z,73.02
2023-08-24T04:15:17.646Z,73.15
2023-08-24T04:17:45.565Z,73.33
2023-08-24T04:20:13.365Z,73.27
2023-08-24T04:22:41.234Z,73.43
2023-08-24T04:25:09.543Z,73.69
2023-08-24T04:27:38.217Z,73.70
2023-08-24T04:30:06.876Z,73.89
2023-08-24T04:32:34.758Z,73.97
2023-08-24T04:35:02.356Z,73.97
2023-08-24T04:37:30.108Z,74.02
2023-08-24T04:39:57.675Z,74.06
2023-08-24T04:42:25.970Z,74.12
2023-08-24T04:44:53.588Z,74.39
2023-08-24T04:47:21.242Z,74.56
2023-08-24T04:49:48.886Z,74.72
2023-08-24T04:52:16.575Z,74.68
2023-08-24T04:54:44.145Z,74.82
2023-08-24T04:57:11.825Z,74.94
2023-08-24T04:59:39.555Z,74.86
2023-08-24T05:02:07.434Z,74.80
2023-08-24T05:04:35.158Z,74.79
2023-08-24T05:07:02.882Z,74.95
2023-08-24T05:09:30.540Z,75.16
2023-08-24T05:11:58.172Z,75.23
2023-08-24T05:14:25.784Z,75.25
2023-08-24T05:16:53.460Z,75.56
2023-08-24T05:19:21.187Z,75.27
2023-08-24T05:21:48.849Z,75.30
2023-08-24T05:24:16.406Z,75.18
2023-08-24T05:26:44.905Z,75.43
2023-08-24T05:29:26.437Z,75.93
2023-08-24T05:31:57.395Z,76.02
2023-08-24T05:34:25.745Z,76.31
2023-08-24T05:36:54.403Z,76.26
2023-08-24T05:39:22.021Z,76.59
2023-08-24T05:42:22.628Z,76.73
2023-08-24T05:44:51.347Z,76.69
2023-08-24T05:47:19.081Z,76.85
2023-08-24T05:49:46.738Z,76.56
2023-08-24T05:52:14.361Z,76.60
2023-08-24T05:54:42.044Z,76.24
2023-08-24T05:57:09.654Z,76.27
2023-08-24T05:59:37.333Z,76.19
2023-08-24T06:02:05.056Z,76.14
2023-08-24T06:04:32.973Z,76.32
2023-08-24T06:07:01.103Z,76.38
2023-08-24T06:09:28.803Z,76.55
2023-08-24T06:11:56.510Z,76.34
2023-08-24T06:14:24.072Z,76.34
2023-08-24T06:16:54.187Z,76.58
2023-08-24T06:19:22.227Z,76.31
2023-08-24T06:21:50.030Z,76.04
2023-08-24T06:24:17.749Z,75.95
2023-08-24T06:26:45.314Z,75.88
2023-08-24T06:29:13.262Z,75.87
2023-08-24T06:31:40.961Z,75.64
2023-08-24T06:34:10.970Z,75.46
2023-08-24T06:36:38.558Z,75.30
2023-08-24T06:39:06.640Z,74.79
2023-08-24T06:41:36.163Z,74.67
2023-08-24T06:44:05.427Z,74.83
2023-08-24T06:46:33.147Z,74.61
2023-08-24T06:49:00.790Z,73.72
2023-08-24T06:51:32.211Z,73.59
2023-08-24T06:53:59.850Z,73.59
2023-08-24T06:56:27.490Z,73.28
2023-08-24T06:58:55.103Z,73.34
2023-08-24T07:01:22.945Z,72.88
2023-08-24T07:03:50.634Z,72.23
2023-08-24T07:06:18.394Z,71.59
2023-08-24T07:08:48.304Z,71.08
2023-08-24T07:11:16.082Z,71.03
2023-08-24T07:13:43.799Z,71.64
2023-08-24T07:16:11.442Z,71.62
2023-08-24T07:18:39.085Z,70.83
2023-08-24T07:21:06.690Z,70.18
2023-08-24T07:23:34.681Z,70.03
2023-08-24T07:26:02.320Z,70.77
2023-08-24T07:28:30.943Z,70.39
2023-08-24T07:30:58.794Z,70.04
2023-08-24T07:33:26.569Z,69.81
2023-08-24T07:35:54.196Z,69.65
2023-08-24T07:38:22.267Z,69.81
2023-08-24T07:40:50.251Z,69.62
2023-08-24T07:43:17.969Z,68.90
2023-08-24T07:45:45.711Z,69.09
2023-08-24T07:48:13.719Z,68.79
2023-08-24T07:50:41.450Z,67.30
2023-08-24T07:53:09.875Z,67.31
2023-08-24T07:55:37.538Z,66.57
2023-08-24T07:58:05.101Z,66.61
2023-08-24T08:00:32.836Z,67.18
2023-08-24T08:03:00.535Z,66.97
2023-08-24T08:05:28.536Z,66.89
2023-08-24T08:07:56.231Z,67.20
2023-08-24T08:10:23.867Z,66.88
2023-08-24T08:12:51.551Z,66.41
2023-08-24T08:15:19.316Z,66.48
2023-08-24T08:17:47.155Z,66.61
2023-08-24T08:20:15.360Z,66.65
2023-08-24T08:22:42.908Z,66.67
2023-08-24T08:25:10.538Z,66.44
2023-08-24T08:27:38.502Z,65.98
2023-08-24T08:30:07.103Z,66.27
2023-08-24T08:32:34.744Z,66.02
2023-08-24T08:35:05.075Z,65.93
2023-08-24T08:37:36.982Z,66.19
2023-08-24T08:40:08.272Z,66.10
2023-08-24T08:42:36.913Z,65.69
2023-08-24T08:45:10.519Z,65.35
2023-08-24T08:47:39.365Z,65.44
2023-08-24T08:50:07.578Z,65.70
2023-08-24T08:52:35.275Z,65.29
2023-08-24T08:55:08.100Z,64.84
2023-08-24T08:57:41.338Z,64.30
2023-08-24T09:00:14.015Z,64.21
2023-08-24T09:02:45.543Z,64.23
2023-08-24T09:05:13.680Z,63.62
2023-08-24T09:07:41.657Z,63.64
2023-08-24T09:10:09.612Z,62.98
2023-08-24T09:12:37.344Z,62.59
2023-08-24T09:15:08.797Z,61.28
2023-08-24T09:17:36.460Z,61.84
2023-08-24T09:20:08.339Z,62.19
2023-08-24T09:22:40.833Z,62.38
2023-08-24T09:25:11.310Z,62.07
2023-08-24T09:27:39.350Z,61.96
2023-08-24T09:30:08.350Z,61.59
2023-08-24T09:32:36.475Z,61.40
2023-08-24T09:35:09.166Z,60.78
2023-08-24T09:37:37.923Z,60.47
2023-08-24T09:40:08.834Z,60.06
2023-08-24T09:42:42.811Z,59.78
2023-08-24T09:45:15.058Z,60.38
2023-08-24T09:47:47.739Z,60.04
2023-08-24T09:50:15.648Z,59.82
2023-08-24T09:52:44.153Z,59.50
2023-08-24T09:55:15.324Z,59.28
2023-08-24T09:57:43.705Z,58.45
2023-08-24T10:00:17.450Z,58.25
2023-08-24T10:02:55.165Z,57.76
2023-08-24T10:07:59.331Z,56.66
2023-08-24T10:10:29.426Z,56.81
2023-08-24T10:13:11.571Z,56.29
2023-08-24T10:15:47.378Z,55.08
2023-08-24T10:18:17.677Z,55.66
2023-08-24T10:20:46.773Z,55.32
2023-08-24T10:23:16.830Z,55.41
2023-08-24T10:25:46.778Z,55.80
2023-08-24T10:28:17.428Z,54.17
2023-08-24T10:30:46.872Z,54.19
2023-08-24T10:33:16.585Z,54.11
2023-08-24T10:35:46.284Z,52.92
2023-08-24T10:38:34.883Z,53.06
2023-08-24T10:41:05.306Z,53.10
2023-08-24T10:43:38.274Z,52.28
2023-08-24T10:46:12.888Z,52.38
2023-08-24T10:48:43.460Z,52.59
2023-08-24T10:51:27.779Z,52.75
2023-08-24T10:54:03.906Z,51.93
2023-08-24T10:56:39.984Z,52.44
2023-08-24T10:59:14.029Z,51.71
2023-08-24T11:01:43.633Z,51.38
2023-08-24T11:04:12.464Z,51.73
2023-08-24T11:06:57.281Z,51.75
2023-08-24T11:09:25.517Z,52.29
2023-08-24T11:12:06.993Z,51.58
2023-08-24T11:14:52.520Z,51.72
2023-08-24T11:17:22.574Z,51.51
2023-08-24T11:19:51.778Z,51.26
2023-08-24T11:22:19.680Z,51.42
2023-08-24T11:24:48.024Z,51.18
2023-08-24T11:27:17.186Z,51.81
2023-08-24T11:29:44.992Z,51.37
2023-08-24T11:32:12.807Z,50.94
2023-08-24T11:34:40.630Z,50.31
2023-08-24T11:37:19.761Z,51.27
2023-08-24T11:39:47.352Z,51.07
2023-08-24T11:42:15.195Z,50.43
2023-08-24T11:44:50.467Z,50.61
2023-08-24T11:47:21.368Z,50.31
2023-08-24T11:49:49.286Z,50.74
2023-08-24T11:52:18.326Z,50.69
2023-08-24T11:54:46.730Z,50.89
2023-08-24T11:57:14.492Z,50.61
2023-08-24T11:59:43.161Z,50.62
2023-08-24T12:02:12.280Z,50.62
2023-08-24T12:04:40.957Z,50.49
2023-08-24T12:07:12.881Z,50.65
2023-08-24T12:09:41.541Z,49.92
2023-08-24T12:12:16.774Z,49.20
2023-08-24T12:14:46.096Z,48.69
2023-08-24T12:17:14.772Z,49.63
2023-08-24T12:20:03.145Z,49.83
2023-08-24T12:22:30.773Z,49.43
2023-08-24T12:24:58.719Z,48.96
2023-08-24T12:27:28.374Z,48.57
2023-08-24T12:30:01.927Z,48.74
2023-08-24T12:32:45.219Z,48.36
2023-08-24T12:35:16.626Z,48.24
2023-08-24T12:37:44.757Z,47.48
2023-08-24T12:40:13.766Z,47.53
2023-08-24T12:42:41.657Z,47.34
2023-08-24T12:45:09.621Z,45.93
2023-08-24T12:47:39.010Z,45.76
2023-08-24T12:50:07.602Z,45.44
2023-08-24T12:52:35.158Z,44.46
2023-08-24T12:55:04.466Z,43.87
2023-08-24T12:57:32.078Z,44.28
2023-08-24T13:00:00.761Z,44.09
2023-08-24T13:02:37.140Z,43.67
2023-08-24T13:05:07.788Z,43.86
2023-08-24T13:07:36.476Z,43.77
2023-08-24T13:10:05.844Z,44.42
2023-08-24T13:12:35.313Z,44.13
2023-08-24T13:15:03.980Z,44.37
2023-08-24T13:17:32.019Z,43.06
2023-08-24T13:19:59.830Z,42.14
2023-08-24T13:22:27.588Z,42.37
2023-08-24T13:24:55.392Z,42.10
2023-08-24T13:27:22.982Z,41.68
2023-08-24T13:29:50.825Z,41.24
2023-08-24T13:32:19.802Z,41.74
2023-08-24T13:34:47.418Z,41.51
2023-08-24T13:37:15.066Z,41.47
2023-08-24T13:39:42.729Z,42.07
2023-08-24T13:42:10.295Z,42.00
2023-08-24T13:44:38.742Z,41.34
2023-08-24T13:47:07.296Z,41.09
2023-08-24T13:49:40.456Z,40.71
2023-08-24T13:52:09.326Z,39.48
2023-08-24T13:54:37.079Z,39.36
2023-08-24T13:57:04.818Z,39.12
2023-08-24T13:59:33.591Z,38.69
2023-08-24T14:02:01.314Z,37.51
2023-08-24T14:04:28.958Z,37.39
2023-08-24T14:06:56.644Z,37.42
2023-08-24T14:09:24.198Z,36.46
2023-08-24T14:11:51.750Z,35.43
2023-08-24T14:14:19.447Z,35.50
2023-08-24T14:16:48.866Z,35.34
2023-08-24T14:19:16.872Z,34.91
2023-08-24T14:21:45.674Z,33.69
2023-08-24T14:24:13.471Z,33.36
2023-08-24T14:26:46.350Z,33.28
2023-08-24T14:29:15.389Z,33.68
2023-08-24T14:31:43.290Z,33.77
2023-08-24T14:34:11.060Z,33.84
2023-08-24T14:36:38.640Z,34.09
2023-08-24T14:39:06.307Z,34.36
2023-08-24T14:41:34.066Z,34.25
2023-08-24T14:44:02.584Z,34.28
2023-08-24T14:46:30.277Z,34.51
2023-08-24T14:48:58.113Z,34.51
2023-08-24T14:51:25.831Z,34.71
2023-08-24T14:53:53.382Z,35.11
2023-08-24T14:56:21.764Z,35.20
2023-08-24T14:58:49.392Z,35.42
2023-08-24T15:01:17.289Z,35.49
2023-08-24T15:03:44.941Z,35.69
2023-08-24T15:06:12.578Z,35.38
2023-08-24T15:08:42.115Z,34.98
2023-08-24T15:11:09.832Z,34.37
2023-08-24T15:13:39.108Z,34.18
2023-08-24T15:16:06.714Z,33.88
2023-08-24T15:18:34.409Z,33.76
2023-08-24T15:21:02.483Z,34.25
2023-08-24T15:23:32.018Z,34.12
2023-08-24T15:26:01.443Z,33.80
2023-08-24T15:29:02.066Z,33.68
2023-08-24T15:31:29.794Z,33.16
2023-08-24T15:33:57.536Z,32.78
2023-08-24T15:36:25.195Z,32.70
2023-08-24T15:38:52.799Z,32.30
2023-08-24T15:41:20.480Z,32.32
2023-08-24T15:43:48.064Z,32.40
2023-08-24T15:46:16.127Z,32.38
2023-08-24T15:48:44.144Z,32.78
2023-08-24T15:51:12.103Z,33.01
2023-08-24T15:53:40.064Z,33.15
2023-08-24T15:56:07.681Z,33.18
2023-08-24T15:58:35.530Z,33.39
2023-08-24T16:01:04.258Z,33.74
2023-08-24T16:03:32.234Z,33.96
2023-08-24T16:05:59.927Z,33.94
2023-08-24T16:08:28.212Z,33.95
2023-08-24T16:10:58.854Z,33.73
2023-08-24T16:13:26.859Z,33.59
2023-08-24T16:15:54.429Z,33.42
2023-08-24T16:18:25.726Z,33.49
2023-08-24T16:20:53.872Z,33.52
2023-08-24T16:23:21.524Z,33.68
2023-08-24T16:25:49.489Z,33.95
2023-08-24T16:28:17.172Z,34.36
2023-08-24T16:30:48.476Z,34.51
2023-08-24T16:33:18.620Z,34.78
2023-08-24T16:35:47.783Z,35.00
2023-08-24T16:38:16.497Z,35.19
2023-08-24T16:40:47.039Z,35.76
2023-08-24T16:43:14.704Z,36.19
2023-08-24T16:45:42.353Z,36.47
2023-08-24T16:48:10.051Z,36.49
2023-08-24T16:50:37.775Z,36.54
2023-08-24T16:53:05.539Z,37.06
2023-08-24T16:55:33.130Z,37.36
2023-08-24T16:58:00.859Z,37.54
2023-08-24T17:00:28.791Z,37.85
2023-08-24T17:02:56.674Z,38.18
2023-08-24T17:05:24.433Z,38.48
2023-08-24T17:08:09.206Z,38.55
2023-08-24T17:10:40.158Z,39.02
2023-08-24T17:13:08.225Z,39.24
2023-08-24T17:15:35.921Z,39.62
2023-08-24T17:18:04.346Z,39.96
2023-08-24T17:20:39.422Z,40.27
2023-08-24T17:23:07.276Z,40.48
2023-08-24T17:25:34.916Z,40.69
2023-08-24T17:28:02.551Z,40.85
2023-08-24T17:30:30.394Z,41.09
2023-08-24T17:32:59.880Z,41.29
2023-08-24T17:35:29.777Z,41.54
2023-08-24T17:37:58.468Z,41.68
2023-08-24T17:40:26.348Z,41.94
2023-08-24T17:42:54.236Z,42.18
2023-08-24T17:45:24.507Z,42.49
2023-08-24T17:47:52.799Z,42.87
2023-08-24T17:50:20.958Z,43.05
2023-08-24T17:52:48.744Z,43.43
2023-08-24T17:55:16.464Z,43.65
2023-08-24T17:57:44.241Z,43.85
2023-08-24T18:00:12.520Z,44.10
2023-08-24T18:02:42.243Z,44.49
2023-08-24T18:05:10.113Z,44.91
2023-08-24T18:07:37.799Z,45.08
2023-08-24T18:10:05.953Z,45.17
2023-08-24T18:12:33.563Z,45.46
2023-08-24T18:15:01.144Z,45.64
2023-08-24T18:17:28.901Z,45.93
2023-08-24T18:19:56.634Z,46.21
2023-08-24T18:22:24.267Z,46.43
2023-08-24T18:24:51.838Z,46.69
2023-08-24T18:27:19.552Z,47.05
2023-08-24T18:29:47.372Z,47.43
2023-08-24T18:32:14.906Z,47.83
2023-08-24T18:34:42.482Z,48.13
2023-08-24T18:37:11.684Z,48.57
2023-08-24T18:39:39.535Z,48.75
2023-08-24T18:42:07.420Z,48.99
2023-08-24T18:44:35.290Z,49.34
2023-08-24T18:47:06.035Z,49.51
2023-08-24T18:49:33.727Z,49.89
2023-08-24T18:52:01.751Z,50.45
2023-08-24T18:54:30.982Z,50.72
2023-08-24T18:57:00.239Z,51.20
2023-08-24T18:59:28.740Z,51.51
2023-08-24T19:01:56.353Z,51.80
2023-08-24T19:04:24.154Z,52.02
2023-08-24T19:06:53.389Z,52.24
2023-08-24T19:09:21.049Z,52.29
2023-08-24T19:11:48.851Z,52.54
2023-08-24T19:14:16.618Z,52.80
2023-08-24T19:16:45.242Z,53.12
2023-08-24T19:19:12.809Z,53.36
2023-08-24T19:21:40.393Z,53.66
2023-08-24T19:24:10.958Z,53.85
2023-08-24T19:26:38.611Z,54.13
2023-08-24T19:29:08.170Z,54.30
2023-08-24T19:31:36.115Z,54.73
2023-08-24T19:34:04.316Z,54.98
2023-08-24T19:36:31.901Z,55.20
2023-08-24T19:38:59.466Z,55.47
2023-08-24T19:41:27.129Z,55.73
2023-08-24T19:43:54.816Z,55.89
2023-08-24T19:46:22.454Z,56.05
2023-08-24T19:48:50.171Z,56.38
2023-08-24T19:51:17.815Z,56.50
2023-08-24T19:53:45.473Z,56.79
2023-08-24T19:56:13.107Z,57.12
2023-08-24T19:58:40.767Z,57.29
2023-08-24T20:01:08.694Z,57.54
2023-08-24T20:03:36.569Z,57.75
2023-08-24T20:06:19.797Z,57.90
2023-08-24T20:08:47.655Z,58.29
2023-08-24T20:11:15.833Z,58.45
2023-08-24T20:13:43.971Z,58.53
2023-08-24T20:16:11.772Z,58.76
2023-08-24T20:18:40.689Z,59.07
2023-08-24T20:21:09.831Z,59.18
2023-08-24T20:23:41.159Z,59.28
2023-08-24T20:26:14.020Z,59.48
2023-08-24T20:28:41.995Z,59.58
2023-08-24T20:31:10.438Z,59.58
2023-08-24T20:33:39.228Z,59.79
2023-08-24T20:36:06.885Z,59.92
2023-08-24T20:38:34.621Z,59.92
2023-08-24T20:41:04.065Z,60.07
2023-08-24T20:43:31.914Z,60.19
2023-08-24T20:45:59.884Z,60.37
2023-08-24T20:48:27.516Z,60.43
2023-08-24T20:50:59.644Z,60.57
2023-08-24T20:53:27.362Z,60.95
2023-08-24T20:55:55.700Z,61.02
2023-08-24T20:58:23.409Z,61.11
2023-08-24T21:00:53.421Z,61.21
2023-08-24T21:03:21.352Z,61.21
2023-08-24T21:05:49.506Z,61.30
2023-08-24T21:08:17.195Z,61.43
2023-08-24T21:10:44.883Z,61.44
2023-08-24T21:13:12.918Z,61.60
2023-08-24T21:15:40.486Z,61.72
2023-08-24T21:18:08.530Z,61.88
2023-08-24T21:20:36.340Z,62.15
2023-08-24T21:23:04.691Z,62.30
2023-08-24T21:25:32.759Z,62.40
2023-08-24T21:28:00.571Z,62.58
2023-08-24T21:30:28.312Z,62.79
2023-08-24T21:32:56.326Z,62.98
2023-08-24T21:35:24.046Z,63.11
2023-08-24T21:37:51.919Z,63.12
2023-08-24T21:40:23.281Z,63.33
2023-08-24T21:42:51.163Z,63.44
2023-08-24T21:45:19.223Z,63.54
2023-08-24T21:47:47.075Z,63.62
2023-08-24T21:50:14.775Z,63.78
2023-08-24T21:52:42.445Z,63.87
2023-08-24T21:55:10.140Z,64.11
2023-08-24T21:57:37.797Z,64.30
2023-08-24T22:00:06.577Z,64.42
2023-08-24T22:02:34.184Z,64.65
2023-08-24T22:05:02.055Z,64.72
2023-08-24T22:07:29.726Z,64.80
2023-08-24T22:09:57.534Z,64.78
2023-08-24T22:12:25.298Z,64.78
2023-08-24T22:14:52.910Z,64.76
2023-08-24T22:17:20.540Z,64.91
2023-08-24T22:19:48.277Z,64.97
2023-08-24T22:22:15.988Z,65.10
2023-08-24T22:24:43.729Z,65.12
2023-08-24T22:27:11.315Z,65.14
2023-08-24T22:29:39.052Z,65.16
2023-08-24T22:32:10.633Z,65.20
2023-08-24T22:34:39.225Z,65.09
2023-08-24T22:37:06.852Z,65.04
2023-08-24T22:39:34.532Z,65.07
2023-08-24T22:42:02.100Z,65.05
2023-08-24T22:44:29.711Z,65.08
2023-08-24T22:46:57.771Z,65.12
2023-08-24T22:49:25.384Z,65.18
2023-08-24T22:51:52.984Z,65.19
2023-08-24T22:54:20.594Z,65.27
2023-08-24T22:56:48.350Z,65.34
2023-08-24T22:59:15.988Z,65.43
2023-08-24T23:01:43.990Z,65.59
2023-08-24T23:04:11.727Z,65.90
2023-08-24T23:07:06.475Z,66.22
2023-08-24T23:09:36.880Z,66.62
2023-08-24T23:12:05.121Z,66.74
2023-08-24T23:14:35.149Z,66.69
2023-08-24T23:17:03.796Z,66.78
2023-08-24T23:19:35.264Z,66.75
2023-08-24T23:22:03.937Z,66.76
2023-08-24T23:24:49.143Z,66.83
2023-08-24T23:27:18.934Z,66.89
2023-08-24T23:29:47.549Z,66.82
2023-08-24T23:32:17.407Z,66.87
2023-08-24T23:34:45.446Z,67.01
2023-08-24T23:37:13.231Z,67.00
2023-08-24T23:39:41.038Z,67.04
2023-08-24T23:42:08.769Z,67.13
2023-08-24T23:44:36.426Z,67.09
2023-08-24T23:47:04.398Z,67.27
2023-08-24T23:49:32.001Z,67.29
2023-08-24T23:51:59.596Z,67.42
2023-08-24T23:54:27.665Z,67.48
2023-08-24T23:56:55.249Z,67.55
2023-08-24T23:59:23.217Z,67.63
